Time;durP1;ratioP1;P1;durP2;ratioP2;P2;SDS_P1;SDS_P2;PMS_P1;PMS_P2;Temp;Humidity;BMP_temperature;BMP_pressure;BME280_temperature;BME280_humidity;BME280_pressure;Samples;Min_cycle;Max_cycle;Signal;HPM_P1;HPM_P2
2022/05/30 00:01:35;;;;;;;8.27;2.83;;;8.80;99.90;;;;;;5056088;28;20055;-70
2022/05/30 00:04:01;;;;;;;9.13;2.83;;;8.80;99.90;;;;;;5056114;28;20056;-69
2022/05/30 00:06:29;;;;;;;6.40;2.85;;;8.70;99.90;;;;;;5056124;28;20057;-69
2022/05/30 00:08:55;;;;;;;3.72;2.55;;;8.70;99.90;;;;;;5056065;28;20352;-70
2022/05/30 00:11:22;;;;;;;8.48;3.63;;;8.60;99.90;;;;;;5055562;28;20463;-69
2022/05/30 00:13:48;;;;;;;8.90;3.22;;;8.60;99.90;;;;;;5055335;28;20037;-70
2022/05/30 00:16:17;;;;;;;6.88;3.00;;;8.60;99.90;;;;;;5052415;28;20056;-70
2022/05/30 00:18:43;;;;;;;6.80;3.40;;;8.50;99.90;;;;;;5038247;28;20048;-69
2022/05/30 00:21:09;;;;;;;7.57;3.20;;;8.50;99.90;;;;;;5055673;28;20048;-69
2022/05/30 00:23:35;;;;;;;7.43;3.45;;;8.50;99.90;;;;;;5055621;28;20057;-70
2022/05/30 00:26:05;;;;;;;9.07;3.40;;;8.40;99.90;;;;;;5055586;28;20477;-69
2022/05/30 00:28:31;;;;;;;10.63;3.00;;;8.40;99.90;;;;;;5054482;28;20468;-69
2022/05/30 00:30:56;;;;;;;9.15;3.40;;;8.30;99.90;;;;;;5055633;28;20040;-69
2022/05/30 00:33:22;;;;;;;7.15;2.88;;;8.30;99.90;;;;;;5055045;28;20048;-69
2022/05/30 00:35:48;;;;;;;7.43;2.80;;;8.20;99.90;;;;;;5055039;28;20167;-70
2022/05/30 00:38:14;;;;;;;7.95;3.17;;;8.20;99.90;;;;;;5037657;28;20106;-69
2022/05/30 00:40:40;;;;;;;7.32;3.00;;;8.30;99.90;;;;;;5055368;28;20041;-69
2022/05/30 00:43:18;;;;;;;6.65;3.38;;;8.30;99.90;;;;;;5055573;28;20406;-70
2022/05/30 00:45:43;;;;;;;8.65;3.70;;;8.20;99.90;;;;;;5054461;28;20037;-70
2022/05/30 00:48:09;;;;;;;9.65;4.15;;;8.10;99.90;;;;;;5055213;28;20060;-69
2022/05/30 00:50:36;;;;;;;7.63;3.75;;;8.00;99.90;;;;;;5021263;28;20377;-69
2022/05/30 00:53:02;;;;;;;7.63;4.07;;;8.00;99.90;;;;;;5037214;28;20440;-69
2022/05/30 00:55:28;;;;;;;12.20;4.38;;;8.10;99.90;;;;;;5055445;28;20048;-68
2022/05/30 00:57:55;;;;;;;12.60;3.80;;;8.00;99.90;;;;;;5034622;28;20053;-69
2022/05/30 01:00:25;;;;;;;8.23;3.47;;;8.10;99.90;;;;;;5055031;28;20052;-69
2022/05/30 01:06:30;;;;;;;10.02;4.22;;;8.00;99.90;;;;;;5054264;28;20044;-69
2022/05/30 01:08:25;;;;;;;7.50;4.03;;;8.00;99.90;;;;;;5054415;28;20087;-69
2022/05/30 01:10:50;;;;;;;12.23;4.75;;;8.00;99.90;;;;;;5054961;28;20106;-69
2022/05/30 01:13:16;;;;;;;12.55;4.15;;;8.00;99.90;;;;;;5054063;28;20048;-69
2022/05/30 01:15:42;;;;;;;12.38;4.20;;;8.00;99.90;;;;;;5054976;28;20111;-70
2022/05/30 01:18:36;;;;;;;17.67;4.78;;;8.00;99.90;;;;;;5054815;28;20095;-70
2022/05/30 01:21:35;;;;;;;11.07;4.67;;;8.10;99.90;;;;;;5053637;28;20067;-69
2022/05/30 01:24:19;;;;;;;11.25;5.10;;;8.10;99.90;;;;;;5037178;28;20045;-69
2022/05/30 01:27:28;;;;;;;10.48;4.10;;;8.10;99.90;;;;;;5055148;28;20063;-69
2022/05/30 01:29:58;;;;;;;11.52;4.40;;;8.10;99.90;;;;;;5054178;28;20379;-69
2022/05/30 01:32:24;;;;;;;14.32;4.80;;;8.10;99.90;;;;;;5054909;28;20049;-70
2022/05/30 01:34:50;;;;;;;11.38;4.63;;;8.10;99.90;;;;;;5054533;28;20060;-69
2022/05/30 01:37:16;;;;;;;11.70;5.50;;;8.10;99.90;;;;;;5053918;28;20044;-69
2022/05/30 01:39:42;;;;;;;10.00;4.70;;;8.10;99.90;;;;;;5054432;28;20044;-69
2022/05/30 01:42:07;;;;;;;9.23;4.80;;;8.10;99.90;;;;;;5054735;28;20033;-69
2022/05/30 01:44:33;;;;;;;12.13;5.25;;;8.10;99.90;;;;;;5054554;28;20417;-69
2022/05/30 01:46:59;;;;;;;12.30;4.80;;;8.10;99.90;;;;;;5054386;28;20041;-69
2022/05/30 01:49:24;;;;;;;14.82;4.70;;;8.00;99.90;;;;;;5054444;28;20056;-69
2022/05/30 01:51:53;;;;;;;9.23;4.38;;;8.00;99.90;;;;;;5054219;28;20099;-70
2022/05/30 01:54:20;;;;;;;12.15;4.05;;;8.00;99.90;;;;;;5053208;28;20115;-68
2022/05/30 01:56:46;;;;;;;8.90;4.45;;;8.00;99.90;;;;;;5054391;28;20055;-69
2022/05/30 01:59:12;;;;;;;6.38;3.90;;;8.10;99.90;;;;;;5054159;28;20094;-68
2022/05/30 02:01:39;;;;;;;7.93;4.20;;;8.10;99.90;;;;;;5054354;28;20432;-69
2022/05/30 02:04:05;;;;;;;11.02;4.25;;;8.20;99.90;;;;;;5054424;28;20110;-69
2022/05/30 02:06:32;;;;;;;10.98;4.45;;;8.20;99.90;;;;;;5054360;28;20439;-70
2022/05/30 02:08:58;;;;;;;7.68;4.25;;;8.30;99.90;;;;;;5054134;28;20494;-69
2022/05/30 02:11:24;;;;;;;10.45;4.97;;;8.30;99.90;;;;;;5053793;28;20053;-69
2022/05/30 02:13:50;;;;;;;8.70;4.68;;;8.30;99.90;;;;;;5054024;28;20052;-69
2022/05/30 02:19:02;;;;;;;5.22;3.97;;;8.40;99.90;;;;;;5054134;28;20053;-69
2022/05/30 02:21:29;;;;;;;9.85;4.63;;;8.40;99.90;;;;;;5036698;28;20084;-69
2022/05/30 02:23:55;;;;;;;8.63;4.18;;;8.40;99.90;;;;;;5054309;28;20053;-69
2022/05/30 02:26:20;;;;;;;6.30;4.05;;;8.50;99.90;;;;;;5057525;28;20115;-69
2022/05/30 02:28:46;;;;;;;8.07;3.60;;;8.50;99.90;;;;;;5039610;28;20455;-70
2022/05/30 02:31:11;;;;;;;9.80;4.70;;;8.50;99.90;;;;;;5057773;28;20044;-69
2022/05/30 02:36:40;;;;;;;8.13;3.97;;;8.60;99.90;;;;;;5037810;28;20050;-69
2022/05/30 02:39:13;;;;;;;8.77;3.80;;;8.50;99.90;;;;;;5037645;28;20119;-68
2022/05/30 02:41:40;;;;;;;8.52;3.45;;;8.50;99.90;;;;;;5037350;28;20456;-68
2022/05/30 02:44:06;;;;;;;7.82;4.03;;;8.50;99.90;;;;;;5037652;28;20053;-68
2022/05/30 02:46:31;;;;;;;6.95;3.75;;;8.60;99.90;;;;;;5055166;28;20115;-69
2022/05/30 02:48:57;;;;;;;6.97;3.78;;;8.50;99.90;;;;;;5057761;28;20044;-70
2022/05/30 02:51:23;;;;;;;8.50;3.67;;;8.50;99.90;;;;;;5057186;28;20036;-69
2022/05/30 02:53:48;;;;;;;7.75;4.28;;;8.60;99.90;;;;;;5057597;28;20063;-69
2022/05/30 02:56:16;;;;;;;6.20;3.50;;;8.60;99.90;;;;;;5057288;28;20048;-69
2022/05/30 02:58:42;;;;;;;5.57;3.70;;;8.60;99.90;;;;;;5057250;28;20450;-69
2022/05/30 03:01:09;;;;;;;8.18;3.58;;;8.60;99.90;;;;;;5057351;28;20048;-69
2022/05/30 03:03:34;;;;;;;4.78;3.78;;;8.60;99.90;;;;;;5056198;28;20128;-69
2022/05/30 03:06:01;;;;;;;8.38;3.42;;;8.60;99.90;;;;;;5056973;28;20065;-69
2022/05/30 03:08:27;;;;;;;5.88;3.20;;;8.50;99.90;;;;;;5057062;28;20074;-69
2022/05/30 03:10:52;;;;;;;8.68;3.70;;;8.50;99.90;;;;;;5040055;28;20132;-69
2022/05/30 03:13:18;;;;;;;5.78;3.40;;;8.50;99.90;;;;;;5056937;28;20056;-68
2022/05/30 03:15:44;;;;;;;4.13;3.22;;;8.40;99.90;;;;;;5057349;28;20041;-69
2022/05/30 03:18:09;;;;;;;6.97;2.67;;;8.40;99.90;;;;;;5057144;28;20120;-68
2022/05/30 03:20:35;;;;;;;5.03;3.08;;;8.40;99.90;;;;;;5035508;28;20049;-69
2022/05/30 03:23:01;;;;;;;3.95;2.65;;;8.30;99.90;;;;;;5037125;28;20033;-69
2022/05/30 03:25:27;;;;;;;4.38;2.80;;;8.30;99.90;;;;;;5036621;28;20049;-69
2022/05/30 03:27:53;;;;;;;5.43;2.67;;;8.30;99.90;;;;;;5036776;28;20037;-69
2022/05/30 03:30:20;;;;;;;5.22;2.80;;;8.30;99.90;;;;;;5036913;28;20464;-69
2022/05/30 03:32:45;;;;;;;7.90;3.88;;;8.30;99.90;;;;;;5036977;28;20049;-69
2022/05/30 03:35:12;;;;;;;12.60;3.35;;;8.30;99.90;;;;;;5049202;28;20047;-68
2022/05/30 03:37:39;;;;;;;7.25;2.97;;;8.30;99.90;;;;;;5055275;28;20055;-68
2022/05/30 03:40:07;;;;;;;7.22;3.30;;;8.30;99.90;;;;;;5056475;28;20068;-69
2022/05/30 03:42:33;;;;;;;7.32;3.13;;;8.40;99.90;;;;;;5039230;28;20068;-69
2022/05/30 03:44:59;;;;;;;7.38;2.58;;;8.40;99.90;;;;;;5039412;28;20459;-69
2022/05/30 03:47:24;;;;;;;6.80;2.53;;;8.40;99.90;;;;;;5056514;28;20458;-70
2022/05/30 03:49:50;;;;;;;8.43;3.00;;;8.50;99.90;;;;;;5056649;28;20088;-69
2022/05/30 03:52:15;;;;;;;5.97;2.92;;;8.50;99.90;;;;;;5056211;28;20053;-69
2022/05/30 03:54:41;;;;;;;5.30;2.22;;;8.50;99.90;;;;;;5055583;28;20052;-69
2022/05/30 03:57:07;;;;;;;5.05;2.00;;;8.50;99.90;;;;;;5039073;28;20049;-69
2022/05/30 03:59:32;;;;;;;3.63;2.22;;;8.50;99.90;;;;;;5056061;28;20477;-69
2022/05/30 04:01:58;;;;;;;2.13;1.85;;;8.60;99.90;;;;;;5056096;28;20107;-70
2022/05/30 04:04:24;;;;;;;4.65;1.85;;;8.50;99.90;;;;;;5055803;28;20498;-69
2022/05/30 04:06:49;;;;;;;6.63;1.90;;;8.60;99.90;;;;;;5056242;28;20072;-69
2022/05/30 04:09:15;;;;;;;6.75;1.77;;;8.60;99.90;;;;;;5055957;28;20402;-69
2022/05/30 04:11:40;;;;;;;4.97;1.80;;;8.60;99.90;;;;;;5037927;28;20132;-69
2022/05/30 04:14:06;;;;;;;4.35;1.63;;;8.60;99.90;;;;;;5055562;28;20087;-69
2022/05/30 04:16:31;;;;;;;3.53;1.67;;;8.60;99.90;;;;;;5055781;28;20090;-69
2022/05/30 04:18:57;;;;;;;4.65;1.65;;;8.70;99.90;;;;;;5055029;28;20049;-69
2022/05/30 04:21:23;;;;;;;5.07;2.08;;;8.60;99.90;;;;;;5038122;28;20072;-69
2022/05/30 04:23:48;;;;;;;4.75;1.63;;;8.60;99.90;;;;;;5055446;28;20040;-69
2022/05/30 04:26:16;;;;;;;3.67;2.15;;;8.60;99.90;;;;;;5055483;28;20102;-70
2022/05/30 04:28:42;;;;;;;4.20;1.60;;;8.50;99.90;;;;;;5054790;28;20123;-70
2022/05/30 04:31:12;;;;;;;3.45;1.98;;;8.60;99.90;;;;;;5055735;28;20095;-69
2022/05/30 04:33:40;;;;;;;5.15;2.10;;;8.50;99.90;;;;;;5055253;28;20049;-69
2022/05/30 04:36:11;;;;;;;3.45;2.20;;;8.50;99.90;;;;;;5055523;28;20048;-69
2022/05/30 04:38:36;;;;;;;4.55;1.98;;;8.50;99.90;;;;;;5055382;28;20041;-69
2022/05/30 04:41:03;;;;;;;7.45;2.45;;;8.50;99.90;;;;;;5055572;28;20466;-69
2022/05/30 04:43:30;;;;;;;5.35;1.88;;;8.40;99.90;;;;;;5055085;28;20049;-68
2022/05/30 04:46:13;;;;;;;2.85;1.83;;;8.40;99.90;;;;;;5055028;28;20381;-68
2022/05/30 04:48:40;;;;;;;5.82;2.17;;;8.40;99.90;;;;;;5036553;28;20055;-69
2022/05/30 04:51:06;;;;;;;4.20;2.58;;;8.40;99.90;;;;;;5055109;28;20089;-70
2022/05/30 04:53:32;;;;;;;2.83;2.47;;;8.30;99.90;;;;;;5055154;28;20450;-69
2022/05/30 04:55:59;;;;;;;3.33;2.17;;;8.40;99.90;;;;;;5037847;28;20045;-69
2022/05/30 04:58:25;;;;;;;4.90;2.42;;;8.30;99.90;;;;;;5055118;28;20033;-69
2022/05/30 05:00:57;;;;;;;4.03;2.20;;;8.30;99.90;;;;;;5053621;28;20489;-69
2022/05/30 05:03:22;;;;;;;3.63;2.25;;;8.40;99.90;;;;;;5043402;28;20044;-68
2022/05/30 05:05:48;;;;;;;5.18;2.75;;;8.40;99.90;;;;;;5066500;28;20495;-69
2022/05/30 05:08:16;;;;;;;6.63;2.78;;;8.40;99.90;;;;;;5075061;28;20052;-69
2022/05/30 05:10:58;;;;;;;5.30;2.60;;;8.40;99.90;;;;;;5053077;28;20063;-69
2022/05/30 05:13:24;;;;;;;6.35;3.00;;;8.60;99.90;;;;;;5053480;28;20045;-69
2022/05/30 05:15:54;;;;;;;3.83;2.33;;;8.50;99.90;;;;;;5022178;28;20044;-70
2022/05/30 05:18:21;;;;;;;5.85;2.60;;;8.60;99.90;;;;;;5054655;28;20045;-71
2022/05/30 05:20:46;;;;;;;5.25;2.95;;;8.70;99.90;;;;;;5054743;28;20120;-72
2022/05/30 05:23:12;;;;;;;10.02;3.20;;;8.70;99.90;;;;;;5054676;28;20128;-69
2022/05/30 05:25:38;;;;;;;3.95;2.60;;;8.80;99.90;;;;;;5053919;28;20485;-69
2022/05/30 05:28:05;;;;;;;5.05;2.90;;;8.90;99.90;;;;;;5050593;28;20061;-69
2022/05/30 05:30:31;;;;;;;7.07;3.28;;;9.00;99.90;;;;;;5054635;28;20137;-69
2022/05/30 05:32:57;;;;;;;10.18;3.60;;;9.00;99.90;;;;;;5059977;28;20123;-67
2022/05/30 05:35:22;;;;;;;6.97;3.08;;;9.20;99.90;;;;;;5054299;28;20510;-69
2022/05/30 05:37:48;;;;;;;7.32;3.53;;;9.30;99.90;;;;;;5071658;28;20131;-71
2022/05/30 05:40:13;;;;;;;8.55;2.60;;;9.30;99.90;;;;;;5072466;28;20102;-68
2022/05/30 05:42:39;;;;;;;6.85;2.20;;;9.40;99.90;;;;;;5071317;28;20048;-68
2022/05/30 05:45:05;;;;;;;5.15;2.20;;;9.50;99.90;;;;;;5074757;28;20044;-70
2022/05/30 05:47:30;;;;;;;8.20;2.50;;;9.50;99.90;;;;;;5074614;28;20045;-69
2022/05/30 05:49:56;;;;;;;6.15;2.38;;;9.50;99.90;;;;;;5074194;28;20385;-69
2022/05/30 05:52:25;;;;;;;7.68;2.28;;;9.60;99.90;;;;;;5056989;28;20469;-69
2022/05/30 05:54:54;;;;;;;7.07;3.05;;;9.60;99.90;;;;;;5056546;28;20455;-67
2022/05/30 05:57:20;;;;;;;7.28;2.63;;;9.70;99.90;;;;;;5034465;28;20064;-67
2022/05/30 05:59:46;;;;;;;4.95;2.40;;;9.70;99.90;;;;;;5036803;28;20355;-70
2022/05/30 06:02:11;;;;;;;5.25;2.63;;;9.70;99.90;;;;;;5041094;28;20128;-69
2022/05/30 06:04:38;;;;;;;4.85;2.63;;;9.80;99.90;;;;;;5058557;28;20044;-68
2022/05/30 06:07:05;;;;;;;6.78;2.42;;;9.80;99.90;;;;;;5058336;28;20037;-69
2022/05/30 06:09:30;;;;;;;6.15;2.88;;;9.80;99.90;;;;;;5058177;28;20048;-68
2022/05/30 06:12:00;;;;;;;7.50;4.35;;;9.90;99.90;;;;;;5057018;28;20041;-70
2022/05/30 06:14:26;;;;;;;9.07;5.50;;;9.90;99.90;;;;;;5058193;28;20132;-66
2022/05/30 06:16:52;;;;;;;10.80;3.97;;;10.10;99.90;;;;;;5057792;28;20088;-67
2022/05/30 06:19:19;;;;;;;2.72;1.40;;;10.20;99.90;;;;;;5057881;28;20052;-69
2022/05/30 06:21:44;;;;;;;4.68;1.58;;;10.20;99.90;;;;;;5057970;28;20056;-69
2022/05/30 06:24:10;;;;;;;2.35;2.00;;;10.10;99.90;;;;;;5057626;28;20049;-69
2022/05/30 06:26:36;;;;;;;3.90;1.40;;;10.10;99.90;;;;;;5066305;28;20040;-70
2022/05/30 06:29:02;;;;;;;5.80;2.42;;;10.10;99.90;;;;;;5028274;28;20048;-69
2022/05/30 06:31:30;;;;;;;4.90;3.20;;;10.10;99.90;;;;;;5057660;28;20051;-68
2022/05/30 06:33:58;;;;;;;5.65;1.45;;;10.30;99.90;;;;;;5057892;28;20090;-67
2022/05/30 06:36:24;;;;;;;5.68;1.65;;;10.40;99.90;;;;;;5043080;28;20491;-68
2022/05/30 06:38:51;;;;;;;3.13;1.30;;;10.50;99.90;;;;;;5037573;28;20049;-68
2022/05/30 06:41:20;;;;;;;4.30;1.95;;;10.60;99.90;;;;;;5037830;28;20057;-69
2022/05/30 06:43:45;;;;;;;1.63;1.15;;;10.60;99.90;;;;;;5038046;28;20136;-68
2022/05/30 06:46:13;;;;;;;3.22;1.00;;;10.70;99.90;;;;;;5037801;28;20478;-68
2022/05/30 06:48:39;;;;;;;1.05;1.00;;;10.70;99.90;;;;;;5049916;28;20047;-67
2022/05/30 06:51:09;;;;;;;4.00;2.13;;;10.80;99.90;;;;;;5075672;28;20045;-72
2022/05/30 06:53:35;;;;;;;3.28;1.13;;;11.00;99.90;;;;;;5041553;28;20111;-72
2022/05/30 06:56:01;;;;;;;6.90;2.55;;;11.10;99.90;;;;;;5054547;28;20394;-67
2022/05/30 06:58:27;;;;;;;5.93;3.88;;;11.10;99.90;;;;;;5057547;28;20087;-68
2022/05/30 07:01:00;;;;;;;3.13;0.75;;;11.10;99.90;;;;;;5057369;28;20041;-73
2022/05/30 07:03:26;;;;;;;2.63;0.68;;;11.10;99.90;;;;;;5056312;28;20422;-69
2022/05/30 07:05:52;;;;;;;4.05;0.90;;;11.10;99.90;;;;;;5054024;28;20087;-69
2022/05/30 07:08:17;;;;;;;4.55;2.20;;;11.20;99.90;;;;;;5057199;28;20049;-68
2022/05/30 07:10:44;;;;;;;2.38;1.38;;;11.20;99.90;;;;;;5056158;28;20398;-70
2022/05/30 07:13:10;;;;;;;5.97;2.20;;;11.10;99.90;;;;;;5056779;28;20110;-67
2022/05/30 07:15:36;;;;;;;3.85;2.80;;;11.10;99.90;;;;;;5038111;28;20048;-66
2022/05/30 07:18:13;;;;;;;2.30;1.75;;;11.10;99.90;;;;;;5054340;28;20451;-69
2022/05/30 07:20:39;;;;;;;4.50;2.63;;;11.10;99.90;;;;;;5056152;28;20474;-67
2022/05/30 07:23:05;;;;;;;2.05;1.20;;;11.00;99.90;;;;;;5052663;28;20038;-67
2022/05/30 07:25:35;;;;;;;2.22;0.80;;;11.00;99.90;;;;;;5039632;28;20052;-68
2022/05/30 07:28:00;;;;;;;3.97;1.98;;;11.00;99.90;;;;;;5056730;28;20059;-68
2022/05/30 07:30:26;;;;;;;3.75;1.88;;;10.90;99.90;;;;;;5038458;28;20045;-68
2022/05/30 07:32:52;;;;;;;1.08;0.65;;;11.10;99.90;;;;;;5039066;28;20106;-68
2022/05/30 07:35:17;;;;;;;3.20;0.93;;;11.20;99.90;;;;;;5038921;28;20044;-69
2022/05/30 07:37:43;;;;;;;4.45;1.00;;;11.40;99.90;;;;;;5039414;28;20053;-67
2022/05/30 07:40:09;;;;;;;4.88;1.10;;;11.60;99.90;;;;;;5056600;28;20065;-68
2022/05/30 07:42:34;;;;;;;3.38;1.00;;;11.60;99.90;;;;;;5039029;28;20041;-69
2022/05/30 07:45:00;;;;;;;2.97;1.15;;;11.60;99.90;;;;;;5038212;28;20148;-67
2022/05/30 07:47:27;;;;;;;1.83;0.50;;;11.50;99.90;;;;;;5056145;28;20052;-69
2022/05/30 07:49:53;;;;;;;2.55;1.15;;;11.40;99.90;;;;;;5056289;28;20080;-68
2022/05/30 07:52:19;;;;;;;1.52;0.98;;;11.30;99.90;;;;;;5056024;28;20091;-68
2022/05/30 07:54:44;;;;;;;5.57;1.20;;;11.40;99.90;;;;;;5056179;28;20404;-69
2022/05/30 07:57:10;;;;;;;4.47;1.60;;;11.50;99.90;;;;;;5055537;28;20041;-69
2022/05/30 07:59:36;;;;;;;3.83;1.05;;;11.60;99.90;;;;;;5055971;28;20099;-67
2022/05/30 08:02:03;;;;;;;4.25;1.25;;;11.60;99.90;;;;;;5037939;28;20084;-68
2022/05/30 08:04:29;;;;;;;3.95;1.27;;;11.70;99.90;;;;;;5055687;28;20475;-71
2022/05/30 08:06:54;;;;;;;3.08;1.38;;;11.80;99.90;;;;;;5038712;28;20091;-66
2022/05/30 08:09:20;;;;;;;5.95;1.40;;;12.00;99.90;;;;;;5059502;28;20123;-67
2022/05/30 08:11:46;;;;;;;3.60;1.33;;;12.20;99.90;;;;;;5075521;28;20062;-68
2022/05/30 08:14:11;;;;;;;4.28;1.55;;;12.30;99.90;;;;;;5076059;28;20083;-71
2022/05/30 08:16:37;;;;;;;5.68;1.30;;;12.40;99.90;;;;;;5075770;28;20422;-69
2022/05/30 08:19:05;;;;;;;3.97;1.00;;;12.40;99.90;;;;;;5075507;28;20044;-68
2022/05/30 08:21:30;;;;;;;7.28;1.77;;;12.40;99.90;;;;;;5075346;28;20462;-69
2022/05/30 08:23:56;;;;;;;3.60;1.35;;;12.40;99.90;;;;;;5070890;28;20098;-68
2022/05/30 08:26:21;;;;;;;3.80;1.50;;;12.40;99.90;;;;;;5043413;28;20048;-70
2022/05/30 08:28:47;;;;;;;4.85;1.45;;;12.30;99.90;;;;;;5068603;28;20087;-68
2022/05/30 08:31:12;;;;;;;2.72;1.25;;;12.00;99.90;;;;;;5066611;28;20053;-68
2022/05/30 08:33:38;;;;;;;5.88;1.05;;;11.90;99.90;;;;;;5074929;28;20037;-67
2022/05/30 08:36:07;;;;;;;2.55;1.35;;;11.80;99.90;;;;;;5075056;28;20040;-68
2022/05/30 08:38:37;;;;;;;4.78;1.10;;;11.80;99.90;;;;;;5075540;28;20106;-69
2022/05/30 08:43:57;;;;;;;7.03;1.40;;;11.90;99.90;;;;;;5055809;28;20438;-71
2022/05/30 08:46:39;;;;;;;6.90;1.52;;;11.80;99.90;;;;;;5038604;28;20051;-70
2022/05/30 08:49:28;;;;;;;5.80;1.27;;;11.90;99.90;;;;;;5055356;28;20059;-69
2022/05/30 08:52:03;;;;;;;7.15;1.73;;;12.30;99.90;;;;;;5037689;28;20140;-69
2022/05/30 08:55:02;;;;;;;2.95;1.05;;;12.40;99.90;;;;;;5054693;28;20053;-68
2022/05/30 08:57:47;;;;;;;3.78;0.98;;;12.20;99.90;;;;;;5055178;28;20336;-69
2022/05/30 09:00:29;;;;;;;2.25;1.15;;;12.00;99.90;;;;;;5034724;28;20053;-69
2022/05/30 09:03:17;;;;;;;5.50;1.65;;;11.90;99.90;;;;;;5035051;28;20049;-70
2022/05/30 09:05:48;;;;;;;4.35;1.20;;;11.80;99.90;;;;;;5035196;28;20056;-69
2022/05/30 09:08:36;;;;;;;7.20;1.63;;;11.70;99.90;;;;;;5034905;28;20045;-71
2022/05/30 09:11:25;;;;;;;5.35;1.60;;;11.80;99.90;;;;;;5034911;28;20045;-71
2022/05/30 09:13:53;;;;;;;6.03;1.20;;;11.70;99.90;;;;;;5045580;28;20347;-68
2022/05/30 09:16:28;;;;;;;3.20;0.93;;;11.80;99.90;;;;;;5072446;28;20109;-71
2022/05/30 09:18:55;;;;;;;4.35;1.20;;;11.70;99.90;;;;;;5074783;28;20047;-69
2022/05/30 09:21:22;;;;;;;2.30;1.20;;;11.80;99.90;;;;;;5074752;28;20044;-69
2022/05/30 09:23:48;;;;;;;4.30;1.63;;;12.00;99.90;;;;;;5074679;28;20080;-68
2022/05/30 09:26:20;;;;;;;5.30;2.50;;;12.20;99.90;;;;;;5074702;28;20478;-69
2022/05/30 09:28:48;;;;;;;2.15;1.33;;;12.10;99.90;;;;;;5064727;28;20059;-68
2022/05/30 09:31:29;;;;;;;4.20;1.85;;;12.10;99.90;;;;;;5054361;28;20451;-71
2022/05/30 09:33:59;;;;;;;3.05;1.55;;;12.00;99.90;;;;;;5054026;28;20084;-69
2022/05/30 09:36:27;;;;;;;6.00;1.60;;;11.90;99.90;;;;;;5051728;28;20102;-70
2022/05/30 09:39:14;;;;;;;4.32;1.92;;;12.00;99.90;;;;;;5054329;28;20413;-69
2022/05/30 09:41:39;;;;;;;5.00;1.73;;;12.20;99.90;;;;;;5061072;28;20036;-69
2022/05/30 09:44:17;;;;;;;7.40;1.98;;;12.30;99.90;;;;;;5074535;28;20063;-68
2022/05/30 09:46:56;;;;;;;5.60;1.50;;;12.40;99.90;;;;;;5074509;28;20040;-70
2022/05/30 09:49:45;;;;;;;4.65;1.73;;;12.30;99.90;;;;;;5057452;28;20075;-70
2022/05/30 09:52:29;;;;;;;5.07;1.92;;;12.30;99.90;;;;;;5045029;28;20090;-71
2022/05/30 09:54:55;;;;;;;6.80;1.95;;;12.30;99.90;;;;;;5054507;28;20053;-69
2022/05/30 09:57:35;;;;;;;3.30;1.27;;;12.30;99.90;;;;;;5054125;28;20460;-69
2022/05/30 10:00:19;;;;;;;6.45;1.23;;;12.30;99.90;;;;;;5053782;28;20060;-69
2022/05/30 10:02:45;;;;;;;2.53;1.17;;;12.30;99.90;;;;;;5056548;28;20352;-69
2022/05/30 10:05:29;;;;;;;5.80;1.60;;;12.40;99.90;;;;;;5074269;28;20052;-70
2022/05/30 10:07:58;;;;;;;4.90;1.70;;;12.80;99.90;;;;;;5074342;28;20040;-70
2022/05/30 10:10:30;;;;;;;7.43;1.35;;;13.10;99.90;;;;;;5074121;28;20041;-69
2022/05/30 10:12:59;;;;;;;2.40;1.25;;;13.10;99.90;;;;;;5074331;28;20044;-69
2022/05/30 10:15:53;;;;;;;7.72;1.50;;;13.00;99.90;;;;;;5054501;28;20045;-70
2022/05/30 10:18:26;;;;;;;2.95;1.27;;;13.00;99.90;;;;;;5053304;28;20045;-70
2022/05/30 10:21:22;;;;;;;3.10;1.20;;;13.00;99.90;;;;;;5058702;28;20486;-69
2022/05/30 10:30:28;;;;;;;2.70;1.25;;;13.30;99.90;;;;;;5073935;28;20063;-69
2022/05/30 10:33:03;;;;;;;2.95;1.17;;;13.30;99.90;;;;;;5070356;28;20048;-70
2022/05/30 10:35:38;;;;;;;6.57;1.67;;;13.20;99.90;;;;;;5034347;28;20042;-69
2022/05/30 10:38:20;;;;;;;4.28;1.58;;;13.30;99.90;;;;;;5033977;28;20045;-69
2022/05/30 10:41:00;;;;;;;2.47;1.25;;;13.40;99.90;;;;;;5034277;28;20142;-68
2022/05/30 10:43:54;;;;;;;5.05;1.52;;;13.40;99.90;;;;;;5034232;28;20045;-69
2022/05/30 10:46:42;;;;;;;6.10;1.55;;;13.40;99.90;;;;;;5009342;28;20072;-70
2022/05/30 10:49:18;;;;;;;3.40;1.38;;;13.30;99.90;;;;;;5044339;28;20040;-69
2022/05/30 10:52:14;;;;;;;5.53;1.02;;;13.10;99.90;;;;;;5059363;28;20408;-69
2022/05/30 10:54:42;;;;;;;3.50;1.10;;;13.20;99.90;;;;;;5061036;28;20049;-71
2022/05/30 10:57:18;;;;;;;3.20;0.98;;;13.30;99.90;;;;;;5077429;28;20049;-70
2022/05/30 10:59:55;;;;;;;2.03;1.15;;;13.30;99.90;;;;;;5077023;28;20478;-70
2022/05/30 11:02:34;;;;;;;3.55;1.70;;;13.10;99.90;;;;;;5077161;28;20040;-69
2022/05/30 11:05:01;;;;;;;3.92;0.93;;;13.10;99.90;;;;;;5077368;28;20045;-69
2022/05/30 11:07:36;;;;;;;4.60;1.88;;;13.00;99.90;;;;;;5075277;28;20084;-71
2022/05/30 11:10:16;;;;;;;1.92;0.77;;;13.10;99.90;;;;;;5056813;28;20463;-69
2022/05/30 11:12:51;;;;;;;3.20;1.65;;;13.10;99.90;;;;;;5039189;28;20474;-70
2022/05/30 11:15:33;;;;;;;1.15;1.00;;;13.40;99.90;;;;;;5071943;28;20048;-70
2022/05/30 11:18:02;;;;;;;5.50;1.25;;;13.30;99.90;;;;;;5077112;28;20453;-69
2022/05/30 11:20:38;;;;;;;6.57;1.38;;;13.50;99.90;;;;;;5076923;28;20094;-70
2022/05/30 11:23:06;;;;;;;4.10;0.90;;;13.60;99.90;;;;;;5076944;28;20037;-70
2022/05/30 11:26:00;;;;;;;3.65;1.10;;;13.60;99.90;;;;;;5076487;28;20083;-70
2022/05/30 11:28:41;;;;;;;5.75;1.25;;;13.40;99.90;;;;;;5074317;28;20055;-70
2022/05/30 11:31:09;;;;;;;4.35;1.13;;;13.50;99.90;;;;;;5076376;28;20454;-71
2022/05/30 11:33:47;;;;;;;4.97;1.50;;;13.60;99.90;;;;;;5076600;28;20080;-70
2022/05/30 11:36:37;;;;;;;4.53;2.55;;;13.60;99.90;;;;;;5076884;28;20063;-70
2022/05/30 11:39:22;;;;;;;4.18;1.30;;;13.60;99.90;;;;;;5076486;28;20078;-70
2022/05/30 11:42:04;;;;;;;2.88;1.30;;;13.50;99.90;;;;;;5074713;28;20056;-70
2022/05/30 11:45:06;;;;;;;3.75;1.30;;;13.70;99.90;;;;;;5076455;28;20045;-70
2022/05/30 11:47:46;;;;;;;3.00;1.27;;;13.40;99.90;;;;;;5042626;28;20049;-70
2022/05/30 11:50:40;;;;;;;3.70;2.17;;;13.30;99.90;;;;;;5076380;28;20048;-71
2022/05/30 11:53:34;;;;;;;4.10;1.30;;;13.20;99.90;;;;;;5076381;28;20113;-70
2022/05/30 11:56:05;;;;;;;5.28;1.60;;;13.30;99.90;;;;;;5074193;28;20086;-71
2022/05/30 11:58:53;;;;;;;3.50;1.25;;;13.30;99.90;;;;;;5058110;28;20490;-72
2022/05/30 12:01:22;;;;;;;5.88;1.40;;;13.10;99.90;;;;;;5010481;28;20067;-70
2022/05/30 12:04:07;;;;;;;3.63;1.40;;;13.10;99.90;;;;;;5076170;28;20094;-71
2022/05/30 12:06:44;;;;;;;6.78;1.30;;;13.00;99.90;;;;;;5075477;28;20044;-69
2022/05/30 12:09:42;;;;;;;3.05;1.20;;;13.30;99.90;;;;;;5041921;28;20058;-71
2022/05/30 12:12:46;;;;;;;3.60;1.00;;;13.70;99.90;;;;;;4979433;28;20348;-72
2022/05/30 12:15:39;;;;;;;2.38;0.80;;;13.70;99.90;;;;;;5075052;28;20378;-71
2022/05/30 12:24:06;;;;;;;3.80;1.05;;;13.70;99.90;;;;;;5075906;28;20052;-70
2022/05/30 12:26:53;;;;;;;2.03;0.77;;;13.60;99.90;;;;;;5066246;28;20044;-71
2022/05/30 12:29:37;;;;;;;2.90;0.88;;;13.60;99.90;;;;;;5057340;28;20053;-71
2022/05/30 12:32:32;;;;;;;1.55;0.68;;;13.90;99.90;;;;;;5036089;28;20132;-70
2022/05/30 12:35:01;;;;;;;2.55;0.98;;;14.00;99.90;;;;;;5035430;28;20376;-69
2022/05/30 12:37:45;;;;;;;2.45;1.02;;;14.10;99.90;;;;;;5035310;28;20474;-69
2022/05/30 12:40:25;;;;;;;2.47;0.80;;;14.20;99.90;;;;;;5058387;28;20052;-71
2022/05/30 12:43:04;;;;;;;3.53;0.90;;;14.50;99.90;;;;;;5075524;28;20055;-70
2022/05/30 12:45:42;;;;;;;2.78;1.20;;;14.30;99.90;;;;;;5075004;28;20044;-70
2022/05/30 12:48:40;;;;;;;4.80;0.98;;;14.40;99.90;;;;;;5075368;28;20480;-69
2022/05/30 12:51:26;;;;;;;2.40;0.98;;;14.50;99.90;;;;;;5072021;28;20102;-70
2022/05/30 12:53:57;;;;;;;2.97;1.08;;;14.40;99.90;;;;;;5075059;28;20057;-71
2022/05/30 12:56:44;;;;;;;1.95;0.95;;;14.60;99.90;;;;;;5075252;28;20063;-69
2022/05/30 12:59:20;;;;;;;1.92;0.77;;;14.60;99.90;;;;;;5057592;28;20048;-71
2022/05/30 13:01:47;;;;;;;1.77;0.80;;;14.70;99.90;;;;;;5075137;28;20041;-70
2022/05/30 13:04:15;;;;;;;3.47;0.90;;;14.50;99.90;;;;;;5075157;28;20055;-70
2022/05/30 13:07:02;;;;;;;3.03;1.05;;;15.00;99.90;;;;;;5074002;28;20058;-70
2022/05/30 13:09:43;;;;;;;2.70;1.23;;;15.20;99.90;;;;;;5056615;28;20049;-71
2022/05/30 13:12:12;;;;;;;2.80;1.40;;;14.90;99.90;;;;;;5074603;28;20477;-71
2022/05/30 13:14:39;;;;;;;3.53;1.02;;;14.70;99.90;;;;;;5074690;28;20438;-70
2022/05/30 13:17:19;;;;;;;6.30;1.30;;;14.70;99.90;;;;;;5074606;28;20458;-71
2022/05/30 13:20:11;;;;;;;3.70;1.30;;;14.50;99.90;;;;;;5072910;28;20059;-70
2022/05/30 13:22:42;;;;;;;5.30;1.33;;;14.50;99.90;;;;;;5074826;28;20101;-70
2022/05/30 13:25:20;;;;;;;5.47;2.28;;;14.70;99.90;;;;;;5074525;28;20078;-72
2022/05/30 13:27:47;;;;;;;5.03;1.15;;;14.50;99.90;;;;;;5074643;28;20088;-71
2022/05/30 13:30:19;;;;;;;3.00;0.82;;;14.10;99.90;;;;;;5057244;28;20119;-70
2022/05/30 13:32:45;;;;;;;2.67;0.90;;;14.10;99.90;;;;;;5073138;28;20083;-72
2022/05/30 13:35:13;;;;;;;4.07;1.00;;;14.10;99.90;;;;;;5034488;28;20072;-69